Bei Facebook empfehlenBei Twitter postenGoogle plusPinterest

Das Wetter im Erzgebirge am 07.07.2015

Wetter und Klima am 07.07.2015 Holzhau im Erzgebirge (630m ü.NN)
Letzte gemessene Temperatur und Uhrzeit der Messung23:45:00 Uhr17.10 °C
Temperatur (Maximum / Höchstwert) und Uhrzeit der Messung17:15:00 Uhr30.90 °C
Temperatur (Minimum / Tiefstwert) und Uhrzeit der Messung02:00:0010.10 °C
Errechneter Absolutwert der Temperaturschwankungen zwischen Tmin und Tmax des Tages20.80 K
Errechnete Tagesmitteltemperatur21.90417 °C
Gesamt - Niederschlag des Tages (in flüssiger Form)9.33 Liter / m²
Luftdruck (Maximum / Höchstwert) und Zeitpunkt der Messung00:15:00 Uhr1019.10 hPa
Luftdruck (Minimum / Tiefstwert) und Zeitpunkt der Messung22:45:00 Uhr1006.10 hPa
Errechneter Absolutwert der Luftdruckschwankungen des Tages13.00 hPa
Höchste gemessene Windgeschwindigkeit und Uhrzeit der Messung23:15:00 Uhr17.28 km/h
Errechnete Windhäufigkeit in Relation zu den Messwerten des Tages20.83333 %
Niedrigste Windkühle (Windchill) und Zeitpunkt der Messung02:00:00 Uhr10.10 °C
Taupunkt (Maximum / Höchstwert) und Uhrzeit der Messung18:45:00 Uhr18.10 °C
Taupunkt (Minimum / Tiefstwert) und Uhrzeit der Messung02:00:008.20 °C
Anzahl der automatisch eingelesenen Messwerte 96

Detaillierte Wetter- und Klima- Messwerte für den 07.07.2015 in Holzhau im Erzgebirge (630m ü.NN)
ZeitTemperaturLuftdruckRel. LuftfeuchteWindWindrichtungWindchillTaupunktNiederschlag l/m²
23:45:0017.10 °C1008.40 hPa80.00 %13.60 °C9.33
23:30:0019.30 °C1009.00 hPa74.00 %14.60 °C8.81
23:15:0021.80 °C1008.20 hPa67.00 %17.28 km/hNW22.40 °C15.40 °C 
23:00:0021.30 °C1006.20 hPa71.00 %15.80 °C 
22:45:0021.30 °C1006.10 hPa71.00 %15.80 °C 
22:30:0021.30 °C1006.30 hPa71.00 %15.80 °C 
22:15:0021.40 °C1006.70 hPa70.00 %15.70 °C 
22:00:0021.80 °C1006.90 hPa68.00 %15.60 °C 
21:45:0022.60 °C1007.10 hPa64.00 %15.40 °C 
21:30:0023.20 °C1007.20 hPa64.00 %16.00 °C 
21:15:0023.60 °C1007.40 hPa63.00 %16.10 °C 
21:00:0024.40 °C1007.80 hPa60.00 %16.10 °C 
20:45:0024.90 °C1007.80 hPa59.00 %16.30 °C 
20:30:0025.90 °C1008.30 hPa57.00 %16.70 °C 
20:15:0027.50 °C1008.60 hPa53.00 %17.10 °C 
20:00:0028.90 °C1008.80 hPa49.00 %17.10 °C 
19:45:0029.30 °C1008.80 hPa49.00 %17.50 °C 
19:30:0029.60 °C1008.80 hPa47.00 %17.10 °C 
19:15:0029.80 °C1009.00 hPa48.00 %17.60 °C 
19:00:0030.20 °C1009.20 hPa47.00 %17.60 °C 
18:45:0030.30 °C1009.70 hPa48.00 %18.10 °C 
18:30:0030.30 °C1010.00 hPa47.00 %17.70 °C 
18:15:0030.30 °C1010.30 hPa47.00 %17.70 °C 
18:00:0030.20 °C1010.60 hPa47.00 %17.60 °C 
17:45:0030.50 °C1010.80 hPa46.00 %17.60 °C 
17:30:0030.60 °C1011.00 hPa46.00 %17.70 °C 
17:15:0030.90 °C1011.30 hPa44.00 %9.72 km/hSO33.60 °C17.20 °C 
17:00:0030.60 °C1011.40 hPa47.00 %18.00 °C 
16:45:0030.60 °C1011.70 hPa46.00 %9.72 km/hSSW33.20 °C17.70 °C 
16:30:0030.20 °C1011.80 hPa47.00 %17.60 °C 
16:15:0030.00 °C1012.30 hPa48.00 %8.64 km/hSSO32.50 °C17.80 °C 
16:00:0029.90 °C1012.50 hPa47.00 %7.56 km/hOSO32.40 °C17.40 °C 
15:45:0029.60 °C1012.80 hPa47.00 %3.96 km/hOSO29.60 °C17.10 °C 
15:30:0029.40 °C1012.80 hPa47.00 %3.60 km/hW29.40 °C16.90 °C 
15:15:0029.40 °C1013.10 hPa47.00 %6.48 km/hSSW31.80 °C16.90 °C 
15:00:0029.60 °C1013.10 hPa47.00 %6.48 km/hSW32.00 °C17.10 °C 
14:45:0029.10 °C1013.10 hPa48.00 %6.12 km/hSW31.40 °C17.00 °C 
14:30:0028.70 °C1013.50 hPa47.00 %16.30 °C 
14:15:0028.50 °C1013.80 hPa47.00 %2.52 km/hS28.50 °C16.10 °C 
14:00:0028.30 °C1013.90 hPa48.00 %10.44 km/hSW30.50 °C16.20 °C 
13:45:0028.20 °C1014.30 hPa47.00 %6.84 km/hSSW30.40 °C15.80 °C 
13:30:0027.90 °C1014.20 hPa47.00 %4.32 km/hWSW27.90 °C15.50 °C 
13:15:0027.90 °C1014.30 hPa46.00 %15.20 °C 
13:00:0027.90 °C1014.40 hPa47.00 %15.50 °C 
12:45:0028.10 °C1014.50 hPa46.00 %3.24 km/hSSW28.10 °C15.40 °C 
12:30:0028.10 °C1014.60 hPa45.00 %15.10 °C 
12:15:0027.80 °C1014.70 hPa45.00 %14.80 °C 
12:00:0028.10 °C1015.00 hPa45.00 %15.10 °C 
11:45:0027.80 °C1015.00 hPa45.00 %14.80 °C 
11:30:0027.80 °C1015.20 hPa44.00 %2.16 km/hSW27.80 °C14.40 °C 
11:15:0027.40 °C1015.10 hPa44.00 %14.10 °C 
11:00:0027.30 °C1015.20 hPa43.00 %13.60 °C 
10:45:0026.70 °C1015.30 hPa45.00 %13.80 °C 
10:30:0026.10 °C1015.30 hPa48.00 %14.20 °C 
10:15:0025.40 °C1015.50 hPa47.00 %2.16 km/hSSW25.40 °C13.30 °C 
10:00:0024.80 °C1015.70 hPa52.00 %14.30 °C 
09:45:0024.30 °C1015.70 hPa54.00 %14.40 °C 
09:30:0024.10 °C1015.80 hPa54.00 %14.20 °C 
09:15:0024.10 °C1016.10 hPa56.00 %2.88 km/hS24.10 °C14.80 °C 
09:00:0023.90 °C1016.20 hPa57.00 %14.90 °C 
08:45:0023.80 °C1016.10 hPa58.00 %15.00 °C 
08:30:0024.10 °C1016.50 hPa60.00 %15.90 °C 
08:15:0023.70 °C1016.30 hPa62.00 %16.00 °C 
08:00:0023.00 °C1016.50 hPa64.00 %15.80 °C 
07:45:0021.90 °C1016.50 hPa70.00 %16.20 °C 
07:30:0019.40 °C1016.60 hPa79.00 %15.70 °C 
07:15:0015.20 °C1016.90 hPa88.00 %13.20 °C 
07:00:0013.60 °C1016.70 hPa87.00 %11.50 °C 
06:45:0013.30 °C1016.90 hPa88.00 %11.40 °C 
06:30:0012.60 °C1016.70 hPa87.00 %10.50 °C 
06:15:0012.30 °C1016.80 hPa87.00 %10.20 °C 
06:00:0012.30 °C1017.10 hPa88.00 %10.40 °C 
05:45:0011.90 °C1017.20 hPa88.00 %10.00 °C 
05:30:0011.60 °C1017.20 hPa88.00 %9.70 °C 
05:15:0011.80 °C1017.30 hPa88.00 %9.90 °C 
05:00:0011.90 °C1017.20 hPa88.00 %10.00 °C 
04:45:0011.60 °C1017.30 hPa89.00 %9.90 °C 
04:30:0011.40 °C1017.40 hPa88.00 %9.50 °C 
04:15:0011.60 °C1017.50 hPa88.00 %9.70 °C 
04:00:0011.40 °C1017.60 hPa89.00 %9.70 °C 
03:45:0011.30 °C1017.60 hPa89.00 %9.60 °C 
03:30:0011.20 °C1017.90 hPa89.00 %9.50 °C 
03:15:0011.10 °C1017.90 hPa89.00 %9.40 °C 
03:00:0011.00 °C1018.00 hPa89.00 %9.30 °C 
02:45:0010.90 °C1018.10 hPa88.00 %9.00 °C 
02:30:0010.90 °C1018.40 hPa89.00 %3.24 km/hOSO10.90 °C9.20 °C 
02:15:0010.60 °C1018.50 hPa89.00 %8.90 °C 
02:00:0010.10 °C1018.60 hPa88.00 %8.20 °C 
01:45:0010.40 °C1018.80 hPa87.00 %8.30 °C 
01:30:0010.60 °C1018.80 hPa87.00 %8.50 °C 
01:15:0010.90 °C1018.90 hPa86.00 %8.70 °C 
01:00:0011.30 °C1019.00 hPa85.00 %8.90 °C 
00:45:0011.70 °C1019.00 hPa86.00 %9.40 °C 
00:30:0011.90 °C1018.90 hPa85.00 %7.56 km/hOSO11.30 °C9.50 °C 
00:15:0012.20 °C1019.10 hPa84.00 %9.60 °C 
00:00:0012.40 °C1019.10 hPa84.00 %9.80 °C 

Permanenter Link zu dieser Seite: Wetter im Erzgebirge am 07.07.2015
Performance-Info: Die Erstellung der Seite / Statistik(en) / Tabelle(n) erforderte 5 Datenbankserver-Abfrage(n) und dauerte 122 Millisekunden. (Dieser Messwert ist von der Gesamt-Auslastung des Servers abhängig.)
Erzgebirge - Wetter | Erzgebirge - Wetter (Mobilgeräte) | Komplette Klimadatenbank